METAR AND TAF INFORMATION
METAR FOR LIMJ
ADDS - METARS form results

(0518 UTC 21 July 2018)
Data provider http://aviationweather.gov/adds/metars/
 
METAR text: LIMJ 210450Z 06008KT 330V090 9999 VCTS FEW025 SCT032 SCT032CB 25/19 Q1010
Conditions at: LIMJ (GENOVA/SESTRI , IT) observed 0450 UTC 21 July 2018
Temperature: 25.0°C (77°F)
Dewpoint: 19.0°C (66°F) [RH = 69%]
Pressure (altimeter): 29.82 inches Hg (1010.0 mb)
Winds: from the ENE (60 degrees) at 9 MPH (8 knots; 4.2 m/s)
Visibility: 6 or more miles (10+ km)
Ceiling: at least 12,000 feet AGL
Clouds: few clouds at 2500 feet AGL
scattered clouds at 3200 feet AGL
scattered clouds at 3200 feet AGL
Weather: VCTS  (thunderstorm in vicinity)

METAR text: LIMJ 210420Z 05003KT 330V130 9999 VCTS FEW025 FEW030CB SCT032 25/19 Q1010
Conditions at: LIMJ (GENOVA/SESTRI , IT) observed 0420 UTC 21 July 2018
Temperature: 25.0°C (77°F)
Dewpoint: 19.0°C (66°F) [RH = 69%]
Pressure (altimeter): 29.82 inches Hg (1010.0 mb)
Winds: from the NE (50 degrees) at 3 MPH (3 knots; 1.6 m/s)
Visibility: 6 or more miles (10+ km)
Ceiling: at least 12,000 feet AGL
Clouds: few clouds at 2500 feet AGL
few clouds at 3000 feet AGL
scattered clouds at 3200 feet AGL
Weather: VCTS  (thunderstorm in vicinity)

Forecast for: LIMJ (GENOVA/SESTRI , IT)
Text: TAF LIMJ 202300Z 2100/2124 16007KT 9999 SCT030
Forecast period: 0000 UTC 21 July 2018 to 0000 UTC 22 July 2018
Forecast type: FROM: standard forecast or significant change
Winds: from the SSE (160 degrees) at 8 MPH (7 knots; 3.6 m/s)
Visibility: 6 or more miles (10+ km)
Clouds: scattered clouds at 3000 feet AGL
Weather: no significant weather forecast for this period
Text: TEMPO 2108/2115 TSRA
Forecast period: 0800 to 1500 UTC 21 July 2018
Forecast type: TEMPORARY: The following changes expected for less than half the time period
Weather: TSRA  (rain associated with thunderstorm(s))

 AIRPORT MAP

 RUNWAY INFORMATION
Runway 10 Runway length 9564 ft Runway width 148 ft
Runway elevation 9 ft Runway displaced threshold 0 ft Runway heading 105
Runway 28 Runway length 9564 ft Runway width 148 ft
Runway elevation 12 ft Runway displaced threshold 528 ft Runway heading 285

 AIRPORT FREQUENCIES
Type APP Name APP Frequency 119.6 MHZ
Type ATIS Name ATIS Frequency 122.825 MHZ
Type TWR Name TWR Frequency 118.6 MHZ

 AIRPORT NEAR NAVIGATION AIDS
Type VOR-DME Name Genova Frequency 112800 KHZ
Type NDB Name Genova Frequency 318 KHZ
Type VOR-DME Name Genova Sestri Frequency 108600 KHZ



© 2017-2018 LuxairVA.com | All Rights Reserved |